Time;durP1;ratioP1;P1;durP2;ratioP2;P2;SDS_P1;SDS_P2;PMS_P1;PMS_P2;Temp;Humidity;BMP_temperature;BMP_pressure;BME280_temperature;BME280_humidity;BME280_pressure;Samples;Min_cycle;Max_cycle;Signal;HPM_P1;HPM_P2
2023/12/22 00:01:56;;;;;;;18.42;2.30;;;;;;;;;;4998888;28;20045;-83
2023/12/22 00:04:23;;;;;;;20.10;2.40;;;;;;;;;;5013984;28;20059;-82
2023/12/22 00:06:51;;;;;;;17.55;2.28;;;;;;;;;;5013185;28;20045;-82
2023/12/22 00:09:18;;;;;;;21.08;3.17;;;;;;;;;;4996881;28;20172;-82
2023/12/22 00:11:45;;;;;;;19.98;2.80;;;;;;;;;;5032555;28;20053;-83
2023/12/22 00:14:12;;;;;;;25.73;3.25;;;;;;;;;;5015934;28;20041;-81
2023/12/22 00:16:39;;;;;;;24.85;2.90;;;;;;;;;;5032485;28;20055;-82
2023/12/22 00:19:05;;;;;;;26.67;3.08;;;;;;;;;;5032132;28;20044;-81
2023/12/22 00:21:32;;;;;;;18.05;3.03;;;;;;;;;;5018229;28;20060;-82
2023/12/22 00:23:59;;;;;;;20.80;3.10;;;;;;;;;;5018230;28;20055;-81
2023/12/22 00:26:26;;;;;;;26.13;2.85;;;;;;;;;;5017762;28;20041;-82
2023/12/22 00:28:52;;;;;;;25.70;3.20;;;;;;;;;;5018262;28;20049;-81
2023/12/22 00:31:19;;;;;;;17.73;2.60;;;;;;;;;;5033699;28;20049;-82
2023/12/22 00:33:47;;;;;;;23.30;3.58;;;;;;;;;;5035261;28;20052;-82
2023/12/22 00:36:14;;;;;;;24.35;4.18;;;;;;;;;;5022041;28;20057;-82
2023/12/22 00:38:40;;;;;;;26.30;3.08;;;;;;;;;;5022507;28;20479;-82
2023/12/22 00:41:07;;;;;;;22.55;2.80;;;;;;;;;;5021965;28;20124;-83
2023/12/22 00:43:34;;;;;;;34.60;3.67;;;;;;;;;;5022263;28;20052;-82
2023/12/22 00:46:01;;;;;;;29.75;4.10;;;;;;;;;;5021919;28;20099;-82
2023/12/22 00:48:28;;;;;;;24.63;3.65;;;;;;;;;;5038425;28;20068;-83
2023/12/22 00:50:55;;;;;;;25.65;3.35;;;;;;;;;;5038217;28;20052;-83
2023/12/22 00:53:22;;;;;;;14.82;2.28;;;;;;;;;;5037978;28;20041;-83
2023/12/22 00:55:48;;;;;;;12.95;1.65;;;;;;;;;;5038474;28;20045;-82
2023/12/22 00:58:15;;;;;;;11.80;2.05;;;;;;;;;;5021466;28;20502;-82
2023/12/22 01:00:42;;;;;;;15.25;2.17;;;;;;;;;;5038523;28;20045;-82
2023/12/22 01:03:11;;;;;;;22.38;2.88;;;;;;;;;;5020918;28;20045;-82
2023/12/22 01:05:38;;;;;;;18.95;3.03;;;;;;;;;;5038622;28;20116;-81
2023/12/22 01:08:05;;;;;;;16.20;3.03;;;;;;;;;;5037396;28;20064;-82
2023/12/22 01:10:32;;;;;;;29.45;3.70;;;;;;;;;;5020465;28;20125;-83
2023/12/22 01:12:59;;;;;;;21.95;2.80;;;;;;;;;;5021729;28;20040;-82
2023/12/22 01:15:26;;;;;;;26.52;3.00;;;;;;;;;;5037527;28;20759;-83
2023/12/22 01:17:53;;;;;;;23.60;2.92;;;;;;;;;;5021701;28;20037;-83
2023/12/22 01:20:20;;;;;;;23.90;2.80;;;;;;;;;;5037742;28;20041;-82
2023/12/22 01:22:46;;;;;;;27.02;2.35;;;;;;;;;;5021390;28;20056;-82
2023/12/22 01:25:13;;;;;;;18.60;2.28;;;;;;;;;;5037150;28;20044;-82
2023/12/22 01:27:40;;;;;;;21.55;2.85;;;;;;;;;;5021369;28;20048;-83
2023/12/22 01:30:07;;;;;;;28.02;3.35;;;;;;;;;;5037265;28;20045;-82
2023/12/22 01:32:36;;;;;;;23.45;3.35;;;;;;;;;;5037782;28;20136;-80
2023/12/22 01:35:09;;;;;;;24.05;3.67;;;;;;;;;;5021445;28;20037;-81
2023/12/22 01:37:37;;;;;;;30.20;4.72;;;;;;;;;;5020907;28;20476;-81
2023/12/22 01:40:05;;;;;;;22.58;3.60;;;;;;;;;;5021203;28;20450;-82
2023/12/22 01:42:31;;;;;;;22.85;2.85;;;;;;;;;;5037308;28;20099;-82
2023/12/22 01:44:58;;;;;;;22.95;3.17;;;;;;;;;;5020641;28;20124;-81
2023/12/22 01:47:25;;;;;;;28.63;3.70;;;;;;;;;;5036169;28;20069;-82
2023/12/22 01:49:53;;;;;;;28.02;4.10;;;;;;;;;;5020948;28;20498;-81
2023/12/22 01:52:19;;;;;;;28.48;3.47;;;;;;;;;;5020169;28;20049;-83
2023/12/22 01:54:46;;;;;;;23.27;2.80;;;;;;;;;;5021050;28;20048;-82
2023/12/22 01:57:17;;;;;;;25.70;3.10;;;;;;;;;;5020945;28;20051;-82
2023/12/22 01:59:46;;;;;;;29.98;3.20;;;;;;;;;;5037428;28;20044;-81
2023/12/22 02:02:13;;;;;;;;;;;;;;;;;;5019934;28;20041;-83
2023/12/22 02:04:39;;;;;;;29.17;3.72;;;;;;;;;;5037028;28;19954;-81
2023/12/22 02:07:08;;;;;;;32.22;4.47;;;;;;;;;;5020087;28;20033;-80
2023/12/22 02:09:35;;;;;;;29.42;3.58;;;;;;;;;;5054902;28;20136;-80
2023/12/22 02:12:02;;;;;;;21.80;3.72;;;;;;;;;;5016972;28;20046;-80
2023/12/22 02:14:29;;;;;;;27.83;2.70;;;;;;;;;;5016732;28;20035;-81
2023/12/22 02:16:59;;;;;;;22.15;2.80;;;;;;;;;;5001010;28;20052;-80
2023/12/22 02:19:38;;;;;;;26.65;4.05;;;;;;;;;;5000369;28;20111;-80
2023/12/22 02:22:06;;;;;;;22.73;2.83;;;;;;;;;;5034350;28;20045;-79
2023/12/22 02:24:36;;;;;;;25.05;2.83;;;;;;;;;;5013860;28;20060;-80
2023/12/22 02:27:15;;;;;;;26.50;3.35;;;;;;;;;;5037089;28;20111;-80
2023/12/22 02:30:11;;;;;;;21.95;2.60;;;;;;;;;;5036392;28;20052;-80
2023/12/22 02:32:43;;;;;;;21.67;3.00;;;;;;;;;;5036139;28;20043;-81
2023/12/22 02:35:15;;;;;;;27.27;3.80;;;;;;;;;;5019972;28;20379;-80
2023/12/22 02:37:42;;;;;;;31.25;3.83;;;;;;;;;;5036736;28;20051;-80
2023/12/22 02:40:09;;;;;;;32.55;4.18;;;;;;;;;;5019641;28;20136;-80
2023/12/22 02:42:38;;;;;;;27.40;3.50;;;;;;;;;;5020172;28;20052;-80
2023/12/22 02:45:14;;;;;;;16.77;3.17;;;;;;;;;;5019236;28;20045;-78
2023/12/22 02:47:41;;;;;;;25.15;2.95;;;;;;;;;;5020150;28;20047;-80
2023/12/22 02:50:09;;;;;;;33.05;3.35;;;;;;;;;;5035894;28;20049;-80
2023/12/22 02:52:35;;;;;;;25.88;2.78;;;;;;;;;;5036377;28;20460;-80
2023/12/22 02:55:03;;;;;;;22.27;3.00;;;;;;;;;;5019878;28;20052;-80
2023/12/22 02:57:30;;;;;;;24.35;3.60;;;;;;;;;;5036037;28;20052;-80
2023/12/22 02:59:57;;;;;;;28.42;3.83;;;;;;;;;;5036189;28;20052;-80
2023/12/22 03:02:24;;;;;;;23.98;2.72;;;;;;;;;;5035794;28;20053;-80
2023/12/22 03:04:51;;;;;;;24.10;3.55;;;;;;;;;;5035791;28;20395;-80
2023/12/22 03:07:17;;;;;;;24.10;3.08;;;;;;;;;;5019238;28;20037;-80
2023/12/22 03:09:44;;;;;;;19.58;2.45;;;;;;;;;;5015972;28;20044;-80
2023/12/22 03:12:11;;;;;;;30.63;3.55;;;;;;;;;;5015648;28;20041;-80
2023/12/22 03:14:38;;;;;;;27.83;3.83;;;;;;;;;;5032574;28;20049;-80
2023/12/22 03:17:06;;;;;;;24.20;3.33;;;;;;;;;;5015560;28;20041;-79
2023/12/22 03:19:33;;;;;;;28.77;4.38;;;;;;;;;;5033488;28;20060;-80
2023/12/22 03:22:01;;;;;;;25.10;3.67;;;;;;;;;;5032573;28;20045;-80
2023/12/22 03:24:28;;;;;;;25.75;4.35;;;;;;;;;;5027057;28;20037;-80
2023/12/22 03:26:56;;;;;;;28.97;3.63;;;;;;;;;;5035934;28;20041;-80
2023/12/22 03:29:23;;;;;;;23.38;3.22;;;;;;;;;;5018640;28;20063;-80
2023/12/22 03:31:49;;;;;;;39.80;4.75;;;;;;;;;;5003125;28;20476;-81
2023/12/22 03:34:16;;;;;;;24.25;3.38;;;;;;;;;;5018794;28;20052;-81
2023/12/22 03:36:48;;;;;;;32.95;4.03;;;;;;;;;;5019199;28;20442;-80
2023/12/22 03:39:15;;;;;;;34.08;3.40;;;;;;;;;;5018644;28;20044;-80
2023/12/22 03:41:42;;;;;;;29.02;3.75;;;;;;;;;;5018957;28;20426;-80
2023/12/22 03:44:09;;;;;;;30.77;3.55;;;;;;;;;;5034912;28;20065;-80
2023/12/22 03:46:36;;;;;;;19.00;3.08;;;;;;;;;;5019395;28;20045;-80
2023/12/22 03:49:03;;;;;;;24.17;3.63;;;;;;;;;;5035943;28;20056;-80
2023/12/22 03:51:30;;;;;;;39.28;4.25;;;;;;;;;;5035746;28;20048;-80
2023/12/22 03:53:56;;;;;;;37.85;4.95;;;;;;;;;;5018779;28;20070;-79
2023/12/22 03:56:23;;;;;;;34.45;4.63;;;;;;;;;;5053115;28;20211;-80
2023/12/22 03:58:50;;;;;;;37.15;4.50;;;;;;;;;;5018670;28;20123;-80
2023/12/22 04:01:17;;;;;;;24.08;2.85;;;;;;;;;;5018237;28;20530;-80
2023/12/22 04:03:44;;;;;;;18.70;2.90;;;;;;;;;;5018373;28;20049;-80
2023/12/22 04:06:10;;;;;;;24.80;2.47;;;;;;;;;;5017953;28;20137;-80
2023/12/22 04:08:37;;;;;;;21.55;3.45;;;;;;;;;;5018107;28;20048;-80
2023/12/22 04:11:04;;;;;;;29.52;3.65;;;;;;;;;;5014275;28;20427;-79
2023/12/22 04:13:31;;;;;;;16.88;2.45;;;;;;;;;;5014849;28;20407;-80
2023/12/22 04:15:57;;;;;;;17.38;3.53;;;;;;;;;;5014946;28;20051;-80
2023/12/22 04:18:24;;;;;;;25.30;3.13;;;;;;;;;;4998400;28;20368;-80
2023/12/22 04:20:53;;;;;;;28.38;3.67;;;;;;;;;;5032889;28;20522;-80
2023/12/22 04:23:20;;;;;;;17.30;2.78;;;;;;;;;;5017276;28;20075;-80
2023/12/22 04:25:47;;;;;;;20.35;3.00;;;;;;;;;;5035054;28;20059;-80
2023/12/22 04:28:14;;;;;;;19.15;2.50;;;;;;;;;;5034331;28;20037;-81
2023/12/22 04:30:41;;;;;;;16.38;2.05;;;;;;;;;;5018159;28;20037;-81
2023/12/22 04:33:08;;;;;;;15.25;2.17;;;;;;;;;;5018026;28;20049;-80
2023/12/22 04:35:35;;;;;;;18.55;2.20;;;;;;;;;;5018337;28;20029;-80
2023/12/22 04:38:02;;;;;;;19.33;2.65;;;;;;;;;;5018308;28;20045;-80
2023/12/22 04:40:29;;;;;;;22.02;2.92;;;;;;;;;;5017866;28;20528;-80
2023/12/22 04:42:55;;;;;;;16.42;1.80;;;;;;;;;;5018621;28;20550;-80
2023/12/22 04:45:22;;;;;;;19.83;2.95;;;;;;;;;;5017750;28;20073;-80
2023/12/22 04:47:49;;;;;;;19.27;2.63;;;;;;;;;;5034777;28;20404;-80
2023/12/22 04:50:16;;;;;;;30.20;3.90;;;;;;;;;;5017836;28;20048;-80
2023/12/22 04:52:44;;;;;;;22.05;3.33;;;;;;;;;;5017991;28;20053;-80
2023/12/22 04:55:10;;;;;;;28.00;3.90;;;;;;;;;;5051897;28;20032;-79
2023/12/22 04:57:37;;;;;;;31.65;3.40;;;;;;;;;;5034486;28;20041;-80
2023/12/22 05:00:04;;;;;;;32.63;4.47;;;;;;;;;;5034280;28;20048;-80
2023/12/22 05:02:32;;;;;;;49.40;5.13;;;;;;;;;;5017722;28;20041;-80
2023/12/22 05:04:59;;;;;;;33.55;4.57;;;;;;;;;;5034189;28;20087;-80
2023/12/22 05:07:26;;;;;;;31.98;4.13;;;;;;;;;;5034194;28;20423;-80
2023/12/22 05:09:54;;;;;;;43.35;5.75;;;;;;;;;;5014347;28;20137;-80
2023/12/22 05:12:21;;;;;;;38.88;4.63;;;;;;;;;;5011464;28;20064;-80
2023/12/22 05:14:47;;;;;;;27.25;4.85;;;;;;;;;;5014535;28;20042;-80
2023/12/22 05:17:14;;;;;;;33.60;4.75;;;;;;;;;;5014323;28;20049;-80
2023/12/22 05:19:41;;;;;;;46.67;5.70;;;;;;;;;;5014698;28;20038;-82
2023/12/22 05:22:08;;;;;;;46.40;5.32;;;;;;;;;;5016667;28;20053;-82
2023/12/22 05:24:34;;;;;;;50.47;5.82;;;;;;;;;;5030739;28;20048;-80
2023/12/22 05:27:02;;;;;;;40.92;6.05;;;;;;;;;;5021701;28;20059;-80
2023/12/22 05:29:28;;;;;;;58.15;7.00;;;;;;;;;;5020835;28;20136;-81
2023/12/22 05:31:55;;;;;;;58.03;7.75;;;;;;;;;;5021661;28;20052;-80
2023/12/22 05:34:22;;;;;;;49.72;7.07;;;;;;;;;;5020725;28;20041;-80
2023/12/22 05:36:49;;;;;;;53.17;6.32;;;;;;;;;;5021161;28;20045;-81
2023/12/22 05:39:16;;;;;;;51.55;6.18;;;;;;;;;;5020916;28;20048;-80
2023/12/22 05:41:43;;;;;;;43.67;6.05;;;;;;;;;;5037430;28;20067;-80
2023/12/22 05:44:09;;;;;;;52.33;6.95;;;;;;;;;;5020369;28;20044;-80
2023/12/22 05:46:40;;;;;;;44.90;5.78;;;;;;;;;;5021267;28;20045;-80
2023/12/22 05:49:07;;;;;;;43.83;5.10;;;;;;;;;;5020579;28;20438;-80
2023/12/22 05:51:38;;;;;;;46.05;6.55;;;;;;;;;;5021041;28;20129;-80
2023/12/22 05:54:07;;;;;;;45.08;6.10;;;;;;;;;;5020454;28;20118;-81
2023/12/22 05:56:34;;;;;;;45.67;6.97;;;;;;;;;;5021053;28;20045;-81
2023/12/22 05:59:01;;;;;;;54.22;7.07;;;;;;;;;;5037219;28;20410;-81
2023/12/22 06:01:28;;;;;;;64.00;9.23;;;;;;;;;;5036706;28;20048;-80
2023/12/22 06:03:55;;;;;;;53.55;7.32;;;;;;;;;;5020521;28;20067;-81
2023/12/22 06:06:22;;;;;;;50.40;7.75;;;;;;;;;;5036581;28;20072;-81
2023/12/22 06:08:49;;;;;;;57.10;6.90;;;;;;;;;;5004681;28;20041;-81
2023/12/22 06:11:16;;;;;;;48.38;8.07;;;;;;;;;;5035906;28;20455;-80
2023/12/22 06:13:42;;;;;;;48.78;7.63;;;;;;;;;;5020774;28;20059;-83
2023/12/22 06:16:16;;;;;;;58.50;8.27;;;;;;;;;;5036423;28;20361;-83
2023/12/22 06:18:43;;;;;;;50.70;7.15;;;;;;;;;;5036846;28;20049;-81
2023/12/22 06:21:10;;;;;;;49.65;7.10;;;;;;;;;;5019877;28;20041;-81
2023/12/22 06:23:37;;;;;;;47.42;7.80;;;;;;;;;;5020299;28;20076;-81
2023/12/22 06:26:11;;;;;;;47.67;6.65;;;;;;;;;;5019426;28;20178;-79
2023/12/22 06:28:39;;;;;;;60.70;6.55;;;;;;;;;;5004214;28;20452;-80
2023/12/22 06:31:08;;;;;;;44.95;6.93;;;;;;;;;;5019914;28;20570;-80
2023/12/22 06:33:35;;;;;;;47.05;6.57;;;;;;;;;;5036424;28;20045;-80
2023/12/22 06:36:03;;;;;;;54.35;7.30;;;;;;;;;;5020312;28;20045;-80
2023/12/22 06:38:31;;;;;;;48.53;6.05;;;;;;;;;;5019620;28;20053;-80
2023/12/22 06:40:57;;;;;;;36.08;5.70;;;;;;;;;;5020003;28;20132;-79
2023/12/22 06:43:24;;;;;;;45.25;7.93;;;;;;;;;;5035909;28;20057;-80
2023/12/22 06:45:54;;;;;;;49.20;9.98;;;;;;;;;;5036104;28;20476;-79
2023/12/22 06:48:21;;;;;;;54.95;9.13;;;;;;;;;;5019596;28;20395;-80
2023/12/22 06:50:49;;;;;;;49.17;7.40;;;;;;;;;;5036193;28;20044;-80
2023/12/22 06:53:16;;;;;;;55.72;7.03;;;;;;;;;;5035529;28;20091;-80
2023/12/22 06:55:51;;;;;;;65.28;8.02;;;;;;;;;;5021019;28;20053;-80
2023/12/22 06:58:21;;;;;;;49.80;8.43;;;;;;;;;;5035925;28;20102;-80
2023/12/22 07:00:48;;;;;;;60.05;14.73;;;;;;;;;;5035677;28;20045;-80
2023/12/22 07:03:17;;;;;;;51.58;7.57;;;;;;;;;;5018895;28;20461;-80
2023/12/22 07:05:44;;;;;;;61.45;10.88;;;;;;;;;;5019779;28;20478;-80
2023/12/22 07:08:11;;;;;;;51.30;7.82;;;;;;;;;;5019026;28;20131;-80
2023/12/22 07:10:38;;;;;;;45.97;8.23;;;;;;;;;;5019003;28;20045;-80
2023/12/22 07:13:06;;;;;;;52.67;9.43;;;;;;;;;;5035608;28;20514;-80
2023/12/22 07:15:33;;;;;;;45.55;8.60;;;;;;;;;;5019284;28;20419;-80
2023/12/22 07:18:01;;;;;;;64.25;10.32;;;;;;;;;;5019215;28;20048;-80
2023/12/22 07:20:28;;;;;;;48.80;9.18;;;;;;;;;;5018847;28;20037;-83
2023/12/22 07:22:56;;;;;;;49.22;10.52;;;;;;;;;;5018383;28;20051;-80
2023/12/22 07:25:23;;;;;;;55.28;9.98;;;;;;;;;;5018682;28;20049;-79
2023/12/22 07:27:51;;;;;;;52.05;9.65;;;;;;;;;;5019298;28;20472;-80
2023/12/22 07:30:18;;;;;;;48.63;10.57;;;;;;;;;;5018817;28;20037;-80
2023/12/22 07:32:51;;;;;;;44.25;8.52;;;;;;;;;;5019129;28;20155;-80
2023/12/22 07:35:19;;;;;;;49.40;7.25;;;;;;;;;;5035302;28;20375;-80
2023/12/22 07:37:46;;;;;;;55.97;7.40;;;;;;;;;;5035941;28;20052;-79
2023/12/22 07:40:14;;;;;;;45.05;9.18;;;;;;;;;;5018836;28;20044;-80
2023/12/22 07:42:43;;;;;;;55.83;8.35;;;;;;;;;;5019153;28;20049;-80
2023/12/22 07:45:10;;;;;;;52.92;6.15;;;;;;;;;;5034324;28;20045;-80
2023/12/22 07:47:37;;;;;;;57.05;7.65;;;;;;;;;;5035359;28;20472;-80
2023/12/22 07:50:08;;;;;;;40.33;6.80;;;;;;;;;;5019144;28;20040;-80
2023/12/22 07:52:38;;;;;;;46.13;6.95;;;;;;;;;;5035777;28;20051;-80
2023/12/22 07:55:11;;;;;;;60.20;9.10;;;;;;;;;;5020042;28;20523;-80
2023/12/22 07:57:38;;;;;;;68.85;16.80;;;;;;;;;;5034942;28;20127;-80
2023/12/22 08:00:06;;;;;;;56.25;9.02;;;;;;;;;;5018751;28;20052;-79
2023/12/22 08:02:33;;;;;;;52.40;9.05;;;;;;;;;;5034917;28;20052;-80
2023/12/22 08:04:59;;;;;;;48.33;13.50;;;;;;;;;;5015215;28;20041;-80
2023/12/22 08:07:26;;;;;;;50.00;10.00;;;;;;;;;;5015071;28;20064;-80
2023/12/22 08:09:53;;;;;;;41.55;8.88;;;;;;;;;;5009939;28;20045;-80
2023/12/22 08:12:20;;;;;;;49.55;11.90;;;;;;;;;;4995129;28;20052;-80
2023/12/22 08:14:47;;;;;;;47.08;7.70;;;;;;;;;;4995542;28;20057;-80
2023/12/22 08:17:13;;;;;;;58.85;9.13;;;;;;;;;;4995082;28;20046;-80
2023/12/22 08:19:43;;;;;;;56.35;8.73;;;;;;;;;;4995690;28;20540;-80
2023/12/22 08:22:13;;;;;;;73.93;11.85;;;;;;;;;;4995664;28;20095;-80
2023/12/22 08:24:41;;;;;;;51.78;8.32;;;;;;;;;;5024983;28;20084;-80
2023/12/22 08:27:08;;;;;;;46.75;7.82;;;;;;;;;;5014366;28;20072;-79
2023/12/22 08:29:35;;;;;;;64.95;8.35;;;;;;;;;;5015067;28;20053;-80
2023/12/22 08:32:02;;;;;;;50.35;7.88;;;;;;;;;;5015098;28;20050;-80
2023/12/22 08:34:29;;;;;;;49.67;7.32;;;;;;;;;;5030967;28;20049;-80
2023/12/22 08:36:56;;;;;;;56.45;7.88;;;;;;;;;;5015201;28;20128;-80
2023/12/22 08:39:24;;;;;;;48.63;7.13;;;;;;;;;;5030898;28;20096;-80
2023/12/22 08:41:52;;;;;;;49.63;7.63;;;;;;;;;;5015032;28;20540;-80
2023/12/22 08:44:19;;;;;;;61.78;11.10;;;;;;;;;;5014507;28;20064;-80
2023/12/22 08:46:46;;;;;;;46.53;7.38;;;;;;;;;;5031078;28;20103;-80
2023/12/22 08:49:12;;;;;;;56.58;9.57;;;;;;;;;;5030741;28;20480;-80
2023/12/22 08:51:41;;;;;;;27.58;5.85;;;;;;;;;;5015034;28;20060;-80
2023/12/22 08:54:07;;;;;;;32.33;8.10;;;;;;;;;;5014376;28;20037;-80
2023/12/22 08:56:35;;;;;;;22.95;4.57;;;;;;;;;;5018106;28;20464;-80
2023/12/22 08:59:02;;;;;;;34.45;5.25;;;;;;;;;;5018529;28;20367;-80
2023/12/22 09:01:29;;;;;;;35.30;4.95;;;;;;;;;;5018481;28;20127;-80
2023/12/22 09:03:55;;;;;;;38.13;5.00;;;;;;;;;;5018381;28;20060;-80
2023/12/22 09:06:24;;;;;;;34.47;4.95;;;;;;;;;;5034382;28;20054;-80
2023/12/22 09:08:52;;;;;;;34.63;5.35;;;;;;;;;;5018565;28;20099;-80
2023/12/22 09:11:21;;;;;;;;;;;;;;;;;;5016984;28;20042;-79
2023/12/22 09:13:47;;;;;;;36.40;5.53;;;;;;;;;;4998756;28;19921;-80
2023/12/22 09:16:21;;;;;;;40.97;5.95;;;;;;;;;;4982469;28;20104;-80
2023/12/22 09:18:49;;;;;;;45.50;7.05;;;;;;;;;;4998651;28;20046;-80
2023/12/22 09:21:17;;;;;;;41.40;5.97;;;;;;;;;;4998775;28;20052;-80
2023/12/22 09:23:47;;;;;;;53.10;6.95;;;;;;;;;;5004458;28;20065;-80
2023/12/22 09:26:14;;;;;;;47.70;6.45;;;;;;;;;;5017585;28;20134;-80
2023/12/22 09:28:42;;;;;;;40.42;6.20;;;;;;;;;;5034372;28;20052;-80
2023/12/22 09:31:09;;;;;;;41.13;5.93;;;;;;;;;;5034097;28;20046;-79
2023/12/22 09:33:36;;;;;;;41.40;5.40;;;;;;;;;;5034271;28;20092;-80
2023/12/22 09:36:04;;;;;;;24.48;4.43;;;;;;;;;;5035289;28;20361;-79
2023/12/22 09:38:31;;;;;;;35.97;4.65;;;;;;;;;;5018087;28;20092;-79
2023/12/22 09:40:58;;;;;;;27.77;4.95;;;;;;;;;;5018146;28;20045;-79
2023/12/22 09:43:25;;;;;;;47.97;6.90;;;;;;;;;;5034112;28;20065;-79
2023/12/22 09:45:52;;;;;;;36.55;5.65;;;;;;;;;;5034180;28;20050;-79
2023/12/22 09:48:27;;;;;;;34.15;7.63;;;;;;;;;;5034076;28;20120;-79
2023/12/22 09:50:55;;;;;;;34.60;8.00;;;;;;;;;;5017819;28;20052;-79
2023/12/22 09:53:24;;;;;;;40.17;10.48;;;;;;;;;;5016931;28;20037;-79
2023/12/22 09:55:51;;;;;;;41.88;6.47;;;;;;;;;;5017946;28;20124;-79
2023/12/22 09:58:18;;;;;;;39.53;9.23;;;;;;;;;;5017292;28;20049;-79
2023/12/22 10:00:47;;;;;;;32.30;6.53;;;;;;;;;;5017423;28;20045;-79
2023/12/22 10:03:15;;;;;;;35.90;13.32;;;;;;;;;;5017802;28;20049;-79
2023/12/22 10:05:43;;;;;;;28.55;6.65;;;;;;;;;;5020701;28;20041;-80
2023/12/22 10:08:11;;;;;;;28.95;7.47;;;;;;;;;;5019498;28;20049;-80
2023/12/22 10:10:45;;;;;;;25.25;5.13;;;;;;;;;;5020628;28;20433;-79
2023/12/22 10:13:13;;;;;;;32.20;13.10;;;;;;;;;;5020295;28;20041;-80
2023/12/22 10:15:41;;;;;;;26.00;6.25;;;;;;;;;;5054986;28;20068;-80
2023/12/22 10:18:09;;;;;;;24.92;5.05;;;;;;;;;;5022930;28;20527;-80
2023/12/22 10:20:36;;;;;;;30.92;4.47;;;;;;;;;;5039081;28;20040;-80
2023/12/22 10:23:03;;;;;;;28.13;5.30;;;;;;;;;;5044337;28;20063;-80
2023/12/22 10:25:30;;;;;;;41.03;5.93;;;;;;;;;;5048092;28;20423;-80
2023/12/22 10:27:58;;;;;;;28.67;5.35;;;;;;;;;;5036649;28;20045;-80
2023/12/22 10:30:25;;;;;;;31.38;6.53;;;;;;;;;;5036515;28;20053;-79
2023/12/22 10:32:51;;;;;;;26.98;6.28;;;;;;;;;;5037231;28;20052;-79
2023/12/22 10:35:22;;;;;;;44.45;6.15;;;;;;;;;;5019867;28;20068;-80
2023/12/22 10:37:53;;;;;;;32.65;5.15;;;;;;;;;;5019835;28;20047;-79
2023/12/22 10:40:20;;;;;;;34.47;8.48;;;;;;;;;;5019678;28;20045;-80
2023/12/22 10:42:48;;;;;;;30.77;5.00;;;;;;;;;;5019968;28;20052;-80
2023/12/22 10:45:17;;;;;;;29.83;3.92;;;;;;;;;;5035933;28;20124;-80
2023/12/22 10:47:44;;;;;;;27.10;4.82;;;;;;;;;;5036785;28;20464;-80
2023/12/22 10:50:14;;;;;;;23.23;3.70;;;;;;;;;;5019268;28;20132;-79
2023/12/22 10:52:41;;;;;;;15.98;3.97;;;;;;;;;;5036487;28;20053;-80
2023/12/22 10:55:08;;;;;;;15.75;3.53;;;;;;;;;;5053714;28;20502;-79
2023/12/22 10:57:38;;;;;;;15.95;3.95;;;;;;;;;;5019979;28;20065;-79
2023/12/22 11:00:07;;;;;;;19.95;3.70;;;;;;;;;;5019699;28;20075;-79
2023/12/22 11:02:35;;;;;;;19.38;3.63;;;;;;;;;;5019430;28;20041;-80
2023/12/22 11:05:05;;;;;;;18.88;2.95;;;;;;;;;;5035895;28;20087;-80
2023/12/22 11:07:37;;;;;;;18.60;4.93;;;;;;;;;;5019480;28;20111;-80
2023/12/22 11:10:06;;;;;;;27.75;5.78;;;;;;;;;;5034961;28;20060;-78
2023/12/22 11:12:36;;;;;;;17.60;3.42;;;;;;;;;;5015875;28;20056;-80
2023/12/22 11:15:06;;;;;;;28.33;4.28;;;;;;;;;;5016344;28;20121;-79
2023/12/22 11:17:35;;;;;;;26.92;5.30;;;;;;;;;;5015991;28;20128;-80
2023/12/22 11:20:04;;;;;;;21.85;5.15;;;;;;;;;;4999882;28;20052;-80
2023/12/22 11:22:32;;;;;;;18.05;3.95;;;;;;;;;;5016053;28;20045;-79
2023/12/22 11:25:02;;;;;;;17.42;4.03;;;;;;;;;;5028871;28;20056;-80
2023/12/22 11:27:29;;;;;;;20.95;3.22;;;;;;;;;;4999077;28;20384;-80
2023/12/22 11:29:57;;;;;;;25.58;4.18;;;;;;;;;;5032556;28;20050;-80
2023/12/22 11:32:25;;;;;;;24.42;5.88;;;;;;;;;;4999396;28;20065;-79
2023/12/22 11:34:53;;;;;;;25.52;5.72;;;;;;;;;;5033838;28;20045;-80
2023/12/22 11:37:20;;;;;;;16.20;4.00;;;;;;;;;;5015339;28;20049;-80
2023/12/22 11:39:48;;;;;;;17.45;2.65;;;;;;;;;;5015363;28;20053;-80
2023/12/22 11:42:18;;;;;;;15.13;3.73;;;;;;;;;;5015164;28;20045;-80
2023/12/22 11:44:45;;;;;;;23.08;5.15;;;;;;;;;;5015630;28;20053;-80
2023/12/22 11:47:14;;;;;;;20.98;5.38;;;;;;;;;;4998672;28;20567;-80
2023/12/22 11:49:41;;;;;;;;;;;;;;;;;;5004297;28;20041;-79
2023/12/22 11:52:18;;;;;;;24.75;8.65;;;;;;;;;;5012405;28;20022;-80
2023/12/22 11:54:51;;;;;;;19.48;3.53;;;;;;;;;;5011706;28;20049;-80
2023/12/22 11:57:37;;;;;;;26.67;7.55;;;;;;;;;;5013585;28;20049;-80
2023/12/22 12:00:21;;;;;;;22.38;5.30;;;;;;;;;;5025442;28;20053;-80
2023/12/22 12:02:55;;;;;;;41.65;13.45;;;;;;;;;;5018953;28;20139;-81
2023/12/22 12:05:22;;;;;;;16.95;2.72;;;;;;;;;;5012949;28;20112;-79
2023/12/22 12:07:50;;;;;;;25.20;5.03;;;;;;;;;;5015676;28;20087;-80
2023/12/22 12:10:33;;;;;;;28.25;5.70;;;;;;;;;;5012754;28;20379;-79
2023/12/22 12:13:09;;;;;;;29.45;4.90;;;;;;;;;;5009965;28;20107;-79
2023/12/22 12:15:38;;;;;;;29.93;7.13;;;;;;;;;;5027857;28;20052;-80
2023/12/22 12:18:05;;;;;;;15.90;3.15;;;;;;;;;;5029867;28;20049;-80
2023/12/22 12:20:33;;;;;;;19.27;5.28;;;;;;;;;;5016445;28;20067;-79
2023/12/22 12:23:04;;;;;;;33.42;4.18;;;;;;;;;;5041576;28;20040;-80
2023/12/22 12:25:35;;;;;;;14.90;2.85;;;;;;;;;;5033366;28;20420;-80
2023/12/22 12:28:08;;;;;;;20.73;2.97;;;;;;;;;;5046423;28;20040;-79
2023/12/22 12:30:38;;;;;;;20.50;2.72;;;;;;;;;;5055011;28;20049;-79
2023/12/22 12:33:08;;;;;;;;;;;;;;;;;;5037119;28;20369;-79
2023/12/22 12:35:37;;;;;;;17.73;3.03;;;;;;;;;;5040763;28;19966;-80
2023/12/22 12:38:10;;;;;;;13.32;2.33;;;;;;;;;;5039522;28;20083;-80
2023/12/22 12:40:40;;;;;;;15.05;2.60;;;;;;;;;;5057497;28;20053;-80
2023/12/22 12:43:07;;;;;;;30.95;3.40;;;;;;;;;;5058498;28;20086;-80
2023/12/22 12:45:34;;;;;;;16.02;1.90;;;;;;;;;;5057366;28;20476;-80
2023/12/22 12:48:03;;;;;;;13.20;2.50;;;;;;;;;;5033046;28;20041;-81
2023/12/22 12:50:32;;;;;;;11.23;1.67;;;;;;;;;;5029605;28;20046;-81
2023/12/22 12:53:00;;;;;;;6.78;1.17;;;;;;;;;;5015281;28;20049;-80
2023/12/22 12:55:27;;;;;;;9.43;1.52;;;;;;;;;;5014671;28;20040;-80
2023/12/22 12:57:55;;;;;;;8.15;1.58;;;;;;;;;;5009408;28;20499;-79
2023/12/22 13:00:32;;;;;;;12.85;1.98;;;;;;;;;;5028251;28;20048;-80
2023/12/22 13:03:05;;;;;;;9.85;1.52;;;;;;;;;;5020519;28;20048;-80
2023/12/22 13:05:33;;;;;;;12.25;1.70;;;;;;;;;;5013712;28;20052;-80
2023/12/22 13:08:08;;;;;;;8.55;1.50;;;;;;;;;;5016346;28;20041;-80
2023/12/22 13:10:36;;;;;;;13.98;2.40;;;;;;;;;;5031073;28;20072;-80
2023/12/22 13:13:04;;;;;;;21.70;4.75;;;;;;;;;;5015210;28;20110;-80
2023/12/22 13:15:31;;;;;;;10.70;2.70;;;;;;;;;;5029370;28;20073;-80
2023/12/22 13:17:58;;;;;;;13.05;1.95;;;;;;;;;;5047920;28;20136;-81
2023/12/22 13:20:25;;;;;;;18.58;2.55;;;;;;;;;;5028146;28;20044;-80
2023/12/22 13:22:52;;;;;;;18.92;3.22;;;;;;;;;;5030974;28;20119;-81
2023/12/22 13:25:21;;;;;;;16.80;2.40;;;;;;;;;;5030161;28;20041;-80
2023/12/22 13:27:48;;;;;;;17.98;2.92;;;;;;;;;;5018438;28;20049;-80
2023/12/22 13:30:40;;;;;;;25.13;4.75;;;;;;;;;;5004484;28;20042;-80
2023/12/22 13:33:08;;;;;;;25.80;3.50;;;;;;;;;;5004338;28;20033;-80
2023/12/22 13:35:36;;;;;;;14.75;2.45;;;;;;;;;;5021362;28;20124;-81
2023/12/22 13:38:09;;;;;;;11.60;2.53;;;;;;;;;;5004386;28;20072;-80
2023/12/22 13:40:38;;;;;;;18.83;2.30;;;;;;;;;;5020744;28;20333;-81
2023/12/22 13:43:07;;;;;;;17.20;2.28;;;;;;;;;;5000079;28;20387;-81
2023/12/22 13:45:35;;;;;;;14.23;2.15;;;;;;;;;;5023094;28;20045;-80
2023/12/22 13:48:02;;;;;;;13.82;2.67;;;;;;;;;;5028230;28;20041;-80
2023/12/22 13:50:29;;;;;;;15.98;2.83;;;;;;;;;;5026772;28;20045;-80
2023/12/22 13:52:56;;;;;;;20.23;3.17;;;;;;;;;;5025130;28;20046;-79
2023/12/22 13:55:23;;;;;;;20.90;7.60;;;;;;;;;;5025196;28;20041;-79
2023/12/22 13:57:59;;;;;;;23.05;3.28;;;;;;;;;;5026846;28;20484;-80
2023/12/22 14:00:29;;;;;;;18.48;4.70;;;;;;;;;;5009458;28;20547;-79
2023/12/22 14:02:56;;;;;;;23.35;9.20;;;;;;;;;;5012182;28;20049;-80
2023/12/22 14:05:23;;;;;;;19.88;3.40;;;;;;;;;;5024533;28;20053;-80
2023/12/22 14:07:51;;;;;;;20.88;8.15;;;;;;;;;;5026887;28;20049;-80
2023/12/22 14:10:19;;;;;;;;;;;;;;;;;;5050529;28;20037;-80
2023/12/22 14:12:45;;;;;;;18.92;3.72;;;;;;;;;;5011782;28;19931;-80
2023/12/22 14:15:13;;;;;;;14.68;3.83;;;;;;;;;;5017281;28;20056;-80
2023/12/22 14:17:42;;;;;;;12.55;3.38;;;;;;;;;;5015699;28;20045;-79
2023/12/22 14:20:09;;;;;;;12.52;2.28;;;;;;;;;;5034119;28;20071;-79
2023/12/22 14:22:37;;;;;;;15.07;1.63;;;;;;;;;;4996476;28;20120;-80
2023/12/22 14:25:05;;;;;;;13.07;2.53;;;;;;;;;;5025581;28;20330;-79
2023/12/22 14:27:32;;;;;;;12.30;2.63;;;;;;;;;;5011679;28;20029;-78
2023/12/22 14:29:59;;;;;;;13.25;3.72;;;;;;;;;;5048032;28;20472;-79
2023/12/22 14:32:26;;;;;;;17.67;2.05;;;;;;;;;;5020040;28;20460;-80
2023/12/22 14:34:53;;;;;;;16.17;3.28;;;;;;;;;;5004404;28;20065;-80
2023/12/22 14:37:19;;;;;;;15.63;2.92;;;;;;;;;;5012615;28;20056;-81